Time;durP1;ratioP1;P1;durP2;ratioP2;P2;SDS_P1;SDS_P2;PMS_P1;PMS_P2;Temp;Humidity;BMP_temperature;BMP_pressure;BME280_temperature;BME280_humidity;BME280_pressure;Samples;Min_cycle;Max_cycle;Signal;HPM_P1;HPM_P2
2022/04/27 00:01:46;;;;;;;4.85;2.20;;;;;;;10.24;100.00;94941.38;4832334;29;20057;-69
2022/04/27 00:04:14;;;;;;;5.45;2.05;;;;;;;10.20;100.00;94935.06;4854725;29;20050;-69
2022/04/27 00:06:41;;;;;;;2.47;2.15;;;;;;;10.25;100.00;94940.38;4845500;29;20750;-69
2022/04/27 00:09:08;;;;;;;3.70;2.35;;;;;;;10.25;100.00;94942.97;4853975;29;20570;-68
2022/04/27 00:11:35;;;;;;;4.05;2.67;;;;;;;10.23;100.00;94945.81;4854298;29;20555;-69
2022/04/27 00:14:03;;;;;;;4.15;2.40;;;;;;;10.24;100.00;94947.38;4855886;29;20052;-68
2022/04/27 00:16:30;;;;;;;11.90;2.10;;;;;;;10.23;100.00;94945.03;4854123;29;20132;-68
2022/04/27 00:18:57;;;;;;;4.32;2.60;;;;;;;10.20;100.00;94937.66;4835008;29;20308;-68
2022/04/27 00:21:24;;;;;;;5.78;2.40;;;;;;;10.18;100.00;94937.09;4829152;29;20093;-68
2022/04/27 00:23:51;;;;;;;2.50;2.13;;;;;;;10.01;100.00;94926.53;4837283;29;20045;-68
2022/04/27 00:26:18;;;;;;;5.43;2.13;;;;;;;10.08;100.00;94940.22;4854246;29;20045;-69
2022/04/27 00:28:45;;;;;;;4.90;2.83;;;;;;;10.02;100.00;94936.72;4835960;29;20598;-69
2022/04/27 00:31:12;;;;;;;2.42;2.13;;;;;;;9.96;100.00;94929.81;4848836;29;20053;-69
2022/04/27 00:33:39;;;;;;;6.85;2.53;;;;;;;10.00;100.00;94932.78;4826966;29;20050;-69
2022/04/27 00:36:06;;;;;;;3.13;2.15;;;;;;;9.95;100.00;94923.03;4837072;29;20459;-68
2022/04/27 00:38:33;;;;;;;3.15;2.33;;;;;;;9.94;100.00;94935.25;4836903;29;20053;-68
2022/04/27 00:41:00;;;;;;;5.85;2.58;;;;;;;9.95;100.00;94933.44;4837676;29;20436;-68
2022/04/27 00:43:34;;;;;;;3.42;2.53;;;;;;;9.93;100.00;94935.47;4852822;29;20409;-68
2022/04/27 00:46:01;;;;;;;;;;;;;;;9.87;100.00;94931.16;4852860;29;20056;-69
2022/04/27 00:48:29;;;;;;;8.25;2.45;;;;;;;9.75;100.00;94920.72;4837200;29;19925;-68
2022/04/27 00:50:59;;;;;;;2.63;2.17;;;;;;;9.64;100.00;94909.28;4849853;29;20049;-69
2022/04/27 00:53:26;;;;;;;2.28;1.95;;;;;;;9.77;100.00;94929.88;4840006;29;20579;-69
2022/04/27 00:55:53;;;;;;;2.92;2.20;;;;;;;9.81;100.00;94938.03;4839040;29;20062;-69
2022/04/27 00:58:24;;;;;;;3.55;2.38;;;;;;;9.83;100.00;94924.81;4833225;29;20053;-68
2022/04/27 01:01:11;;;;;;;2.10;1.83;;;;;;;9.82;100.00;94938.84;4839690;29;20068;-70
2022/04/27 01:03:38;;;;;;;6.05;2.25;;;;;;;9.80;100.00;94935.69;4848836;29;20690;-69
2022/04/27 01:06:05;;;;;;;6.28;1.92;;;;;;;9.81;100.00;94932.03;4845053;29;20803;-69
2022/04/27 01:08:32;;;;;;;3.70;1.98;;;;;;;9.79;100.00;94931.47;4856034;29;20053;-69
2022/04/27 01:10:59;;;;;;;4.28;2.10;;;;;;;9.79;100.00;94928.88;4806380;29;20054;-69
2022/04/27 01:13:30;;;;;;;5.60;2.08;;;;;;;9.78;100.00;94933.28;4805670;29;20474;-69
2022/04/27 01:15:58;;;;;;;3.63;1.90;;;;;;;9.75;100.00;94926.72;4844550;29;20061;-69
2022/04/27 01:18:25;;;;;;;2.55;1.67;;;;;;;9.62;100.00;94913.13;4811443;29;20110;-69
2022/04/27 01:20:52;;;;;;;2.70;2.33;;;;;;;9.76;100.00;94925.72;4852642;29;20144;-69
2022/04/27 01:23:18;;;;;;;4.03;1.80;;;;;;;9.71;100.00;94925.59;4854082;29;20048;-69
2022/04/27 01:25:49;;;;;;;3.83;2.28;;;;;;;9.67;100.00;94927.06;4851271;29;20050;-69
2022/04/27 01:28:24;;;;;;;2.50;1.92;;;;;;;9.61;100.00;94922.72;4836699;29;20057;-69
2022/04/27 01:31:00;;;;;;;3.92;2.33;;;;;;;9.56;100.00;94920.00;4851972;29;20068;-69
2022/04/27 01:33:29;;;;;;;6.13;2.17;;;;;;;9.60;100.00;94928.13;4849183;29;20042;-69
2022/04/27 01:35:58;;;;;;;2.65;1.75;;;;;;;9.54;100.00;94928.03;4843348;29;20056;-70
2022/04/27 01:38:25;;;;;;;2.65;2.00;;;;;;;9.52;100.00;94924.06;4823053;29;20050;-69
2022/04/27 01:40:53;;;;;;;4.20;2.03;;;;;;;9.50;100.00;94916.47;4833604;29;20057;-69
2022/04/27 01:43:24;;;;;;;5.15;2.25;;;;;;;9.49;100.00;94924.50;4835974;29;20412;-69
2022/04/27 01:45:51;;;;;;;3.03;2.42;;;;;;;9.47;100.00;94910.91;4853048;29;20045;-69
2022/04/27 01:48:19;;;;;;;4.75;2.15;;;;;;;9.48;100.00;94928.13;4845682;29;20053;-69
2022/04/27 01:50:46;;;;;;;2.78;2.05;;;;;;;9.43;100.00;94920.97;4853499;29;20120;-69
2022/04/27 01:56:08;;;;;;;5.00;2.60;;;;;;;9.36;100.00;94913.28;4801665;29;20548;-69
2022/04/27 01:58:41;;;;;;;3.42;2.47;;;;;;;9.34;100.00;94910.09;4829878;29;20149;-69
2022/04/27 02:01:12;;;;;;;6.95;2.65;;;;;;;9.29;100.00;94909.97;4829314;29;20074;-69
2022/04/27 02:03:41;;;;;;;4.97;2.22;;;;;;;9.21;100.00;94892.06;4811706;29;20068;-69
2022/04/27 02:06:19;;;;;;;5.95;2.67;;;;;;;9.15;100.00;94891.16;4839943;29;20050;-69
2022/04/27 02:08:46;;;;;;;2.95;2.38;;;;;;;9.16;100.00;94899.75;4833269;29;20050;-69
2022/04/27 02:11:15;;;;;;;3.20;2.40;;;;;;;9.23;100.00;94908.25;4851411;29;20057;-69
2022/04/27 02:13:55;;;;;;;3.25;2.40;;;;;;;9.15;100.00;94903.38;4851424;29;20079;-69
2022/04/27 02:16:25;;;;;;;6.40;2.90;;;;;;;9.21;100.00;94902.47;4832047;29;20137;-69
2022/04/27 02:18:54;;;;;;;6.68;2.92;;;;;;;9.22;100.00;94898.88;4831139;29;20061;-69
2022/04/27 02:21:21;;;;;;;3.58;2.40;;;;;;;9.20;100.00;94900.91;4828468;29;20449;-69
2022/04/27 02:23:49;;;;;;;9.55;3.95;;;;;;;9.20;100.00;94895.72;4823846;29;20676;-69
2022/04/27 02:26:17;;;;;;;3.30;2.55;;;;;;;9.21;100.00;94889.47;4845387;29;20045;-69
2022/04/27 02:28:44;;;;;;;4.18;2.97;;;;;;;9.13;100.00;94895.00;4850516;29;20046;-69
2022/04/27 02:31:10;;;;;;;4.65;2.63;;;;;;;9.13;100.00;94895.00;4831211;29;20049;-69
2022/04/27 02:33:38;;;;;;;4.45;3.42;;;;;;;9.21;100.00;94902.47;4824663;29;20054;-69
2022/04/27 02:36:05;;;;;;;4.53;2.83;;;;;;;9.14;100.00;94899.94;4823875;29;20073;-69
2022/04/27 02:38:33;;;;;;;3.92;2.55;;;;;;;9.17;100.00;94896.13;4836584;29;20060;-69
2022/04/27 02:41:04;;;;;;;5.75;3.75;;;;;;;9.17;100.00;94902.13;4802421;29;20041;-69
2022/04/27 02:43:31;;;;;;;5.70;2.38;;;;;;;9.16;100.00;94900.56;4817038;29;20811;-69
2022/04/27 02:46:01;;;;;;;4.25;2.80;;;;;;;9.21;100.00;94897.28;4838577;29;20050;-68
2022/04/27 02:48:28;;;;;;;3.78;2.40;;;;;;;9.14;100.00;94904.38;4828963;29;20055;-68
2022/04/27 02:53:42;;;;;;;2.60;2.05;;;;;;;9.09;100.00;94899.03;4852667;29;20092;-68
2022/04/27 02:56:10;;;;;;;4.00;2.65;;;;;;;9.09;100.00;94896.44;4843509;29;20152;-69
2022/04/27 02:58:37;;;;;;;4.00;2.05;;;;;;;9.07;100.00;94896.66;4834431;29;20053;-68
2022/04/27 03:01:05;;;;;;;2.80;2.05;;;;;;;8.93;100.00;94885.66;4837988;29;20041;-68
2022/04/27 03:03:31;;;;;;;4.15;2.40;;;;;;;9.02;100.00;94903.50;4848849;29;20045;-68
2022/04/27 03:05:59;;;;;;;2.88;2.25;;;;;;;8.96;100.00;94898.19;4842242;29;20056;-69
2022/04/27 03:08:27;;;;;;;3.65;2.63;;;;;;;8.99;100.00;94902.94;4834555;29;20459;-69
2022/04/27 03:10:54;;;;;;;6.05;3.10;;;;;;;9.02;100.00;94913.91;4854464;29;20145;-69
2022/04/27 03:13:29;;;;;;;4.22;2.78;;;;;;;8.96;100.00;94900.00;4824505;29;20104;-69
2022/04/27 03:16:09;;;;;;;5.55;2.90;;;;;;;8.91;100.00;94911.06;4854913;29;20083;-69
2022/04/27 03:18:36;;;;;;;5.18;2.47;;;;;;;8.86;100.00;94905.72;4838365;29;20616;-68
2022/04/27 03:21:03;;;;;;;4.28;2.50;;;;;;;8.83;100.00;94910.56;4822542;29;20651;-68
2022/04/27 03:23:30;;;;;;;2.42;2.05;;;;;;;8.79;100.00;94910.97;4836605;29;20049;-68
2022/04/27 03:25:57;;;;;;;3.63;2.45;;;;;;;8.78;100.00;94913.78;4821249;29;20156;-68
2022/04/27 03:28:25;;;;;;;2.30;1.67;;;;;;;8.73;100.00;94913.63;4833722;29;20114;-68
2022/04/27 03:30:53;;;;;;;2.50;1.95;;;;;;;8.63;100.00;94918.56;4838929;29;20570;-68
2022/04/27 03:33:35;;;;;;;7.30;2.53;;;;;;;8.54;100.00;94913.63;4838370;29;20049;-68
2022/04/27 03:36:02;;;;;;;3.75;1.90;;;;;;;8.43;100.00;94916.97;4836266;29;20110;-68
2022/04/27 03:38:29;;;;;;;4.55;2.20;;;;;;;8.36;100.00;94921.38;4821537;29;20836;-68
2022/04/27 03:40:56;;;;;;;7.03;2.38;;;;;;;8.34;100.00;94918.22;4817008;29;20096;-68
2022/04/27 03:43:23;;;;;;;5.18;1.85;;;;;;;8.28;100.00;94929.44;4822799;29;20546;-70
2022/04/27 03:45:51;;;;;;;5.30;2.72;;;;;;;8.21;100.00;94919.91;4835847;29;20118;-69
2022/04/27 03:48:18;;;;;;;5.07;2.63;;;;;;;8.31;100.00;94929.03;4823666;29;20046;-70
2022/04/27 03:50:45;;;;;;;5.72;2.58;;;;;;;8.28;100.00;94934.63;4831515;29;20064;-70
2022/04/27 03:53:12;;;;;;;5.10;2.95;;;;;;;8.24;100.00;94927.25;4828619;29;20046;-69
2022/04/27 03:55:39;;;;;;;6.50;3.90;;;;;;;8.35;100.00;94937.94;4824766;29;20688;-69
2022/04/27 03:58:06;;;;;;;5.90;3.25;;;;;;;8.38;100.00;94934.94;4828077;29;20064;-70
2022/04/27 04:00:34;;;;;;;6.85;4.78;;;;;;;8.39;100.00;94941.69;4827223;29;20064;-69
2022/04/27 04:03:11;;;;;;;9.40;3.58;;;;;;;8.36;100.00;94931.78;4842117;29;20046;-69
2022/04/27 04:05:45;;;;;;;5.70;2.80;;;;;;;8.39;100.00;94936.50;4814384;29;20512;-69
2022/04/27 04:08:13;;;;;;;7.20;3.65;;;;;;;8.54;100.00;94944.78;4846699;29;20064;-69
2022/04/27 04:10:40;;;;;;;3.70;2.42;;;;;;;8.73;100.00;94947.41;4852064;29;20041;-71
2022/04/27 04:13:09;;;;;;;3.78;2.80;;;;;;;8.90;100.00;94948.41;4817414;29;20037;-70
2022/04/27 04:16:11;;;;;;;5.30;3.22;;;;;;;8.97;100.00;94954.31;4828753;29;20053;-71
2022/04/27 04:19:06;;;;;;;11.20;4.82;;;;;;;9.04;100.00;94956.03;4811838;29;20050;-70
2022/04/27 04:21:56;;;;;;;7.18;5.03;;;;;;;9.15;100.00;94965.72;4829596;29;20709;-70
2022/04/27 04:24:36;;;;;;;10.50;6.60;;;;;;;9.18;100.00;94967.88;4834248;29;20206;-70
2022/04/27 04:29:50;;;;;;;9.90;6.82;;;;;;;9.23;100.00;94975.81;4826012;29;20058;-71
2022/04/27 04:32:24;;;;;;;9.75;7.07;;;;;;;9.26;100.00;94967.59;4840502;29;20049;-71
2022/04/27 04:35:05;;;;;;;12.02;7.85;;;;;;;9.33;100.00;94973.50;4852189;29;20471;-71
2022/04/27 04:37:32;;;;;;;10.57;6.93;;;;;;;9.40;100.00;94983.00;4832567;29;20054;-67
2022/04/27 04:39:59;;;;;;;11.80;6.93;;;;;;;9.42;100.00;94980.97;4818979;29;20595;-71
2022/04/27 04:42:28;;;;;;;10.25;6.93;;;;;;;9.35;100.00;94978.47;4833364;29;20459;-71
2022/04/27 04:44:57;;;;;;;10.50;6.45;;;;;;;9.38;100.00;94984.03;4846384;29;20121;-71
2022/04/27 04:47:49;;;;;;;17.23;9.05;;;;;;;9.47;100.00;94987.13;4836087;29;20562;-70
2022/04/27 04:50:40;;;;;;;12.30;8.70;;;;;;;9.55;100.00;94991.22;4836461;29;20065;-70
2022/04/27 04:53:30;;;;;;;9.02;7.00;;;;;;;9.55;100.00;95001.63;4823379;29;20042;-70
2022/04/27 04:56:17;;;;;;;14.82;7.80;;;;;;;9.57;100.00;94994.38;4836417;29;20056;-70
2022/04/27 04:58:52;;;;;;;9.93;6.40;;;;;;;9.50;100.00;94988.47;4848248;29;20077;-70
2022/04/27 05:01:45;;;;;;;9.93;6.20;;;;;;;9.51;100.00;95003.09;4824227;29;20058;-70
2022/04/27 05:04:28;;;;;;;7.50;5.55;;;;;;;9.57;100.00;94999.59;4820172;29;20050;-70
2022/04/27 05:07:00;;;;;;;10.00;6.90;;;;;;;9.70;100.00;95009.81;4840752;29;20393;-69
2022/04/27 05:09:47;;;;;;;9.98;7.90;;;;;;;9.79;100.00;95001.72;4852955;29;20081;-70
2022/04/27 05:12:53;;;;;;;11.57;7.40;;;;;;;9.87;100.00;95009.22;4769978;30;20144;-70
2022/04/27 05:15:39;;;;;;;8.07;6.38;;;;;;;9.93;100.00;95008.31;4753459;30;20087;-70
2022/04/27 05:18:24;;;;;;;12.32;6.22;;;;;;;9.97;100.00;95009.44;4799417;29;20065;-69
2022/04/27 05:21:09;;;;;;;8.57;6.85;;;;;;;10.04;100.00;95007.53;4835756;29;20087;-71
2022/04/27 05:24:05;;;;;;;13.23;6.13;;;;;;;10.11;100.00;95007.47;4819268;29;20062;-69
2022/04/27 05:26:44;;;;;;;10.85;7.38;;;;;;;10.23;100.00;95008.28;4846029;29;20120;-69
2022/04/27 05:32:15;;;;;;;6.82;5.65;;;;;;;10.36;100.00;95001.31;4845988;29;20085;-69
2022/04/27 05:34:47;;;;;;;8.27;5.35;;;;;;;10.50;100.00;95013.88;4833771;29;20058;-69
2022/04/27 05:37:33;;;;;;;9.45;6.43;;;;;;;10.56;100.00;95011.41;4817658;29;20050;-69
2022/04/27 05:40:29;;;;;;;6.88;5.20;;;;;;;10.73;100.00;95012.28;4834501;29;20069;-69
2022/04/27 05:43:06;;;;;;;13.23;5.32;;;;;;;10.69;100.00;95005.97;4851523;29;20057;-69
2022/04/27 05:45:45;;;;;;;14.50;5.88;;;;;;;10.82;100.00;95016.16;4851210;29;20073;-69
2022/04/27 05:48:41;;;;;;;7.40;5.25;;;;;;;10.99;100.00;95010.25;4816014;29;20142;-69
2022/04/27 05:51:16;;;;;;;7.90;5.72;;;;;;;11.14;100.00;95013.16;4836824;29;20057;-69
2022/04/27 05:54:02;;;;;;;12.48;6.18;;;;;;;11.27;100.00;95015.53;4845789;29;20058;-69
2022/04/27 05:56:47;;;;;;;7.75;4.57;;;;;;;11.43;100.00;95018.44;4840914;29;20069;-69
2022/04/27 05:59:25;;;;;;;9.93;5.90;;;;;;;11.55;100.00;95019.19;4822853;29;20081;-69
2022/04/27 06:02:10;;;;;;;8.50;4.70;;;;;;;11.65;100.00;95013.38;4837055;29;20135;-69
2022/04/27 06:04:37;;;;;;;8.05;5.05;;;;;;;11.74;100.00;95016.41;4842175;29;20042;-69
2022/04/27 06:07:06;;;;;;;5.18;3.75;;;;;;;11.89;100.00;95019.28;4833015;29;20122;-70
2022/04/27 06:09:33;;;;;;;4.57;3.75;;;;;;;12.04;100.00;95010.97;4816789;29;20053;-69
2022/04/27 06:12:09;;;;;;;5.85;3.95;;;;;;;12.08;100.00;95006.06;4837105;29;20092;-69
2022/04/27 06:14:38;;;;;;;6.50;4.32;;;;;;;12.25;100.00;95017.31;4832741;29;20061;-69
2022/04/27 06:17:10;;;;;;;6.85;4.70;;;;;;;12.31;100.00;95021.59;4836937;29;20046;-69
2022/04/27 06:19:37;;;;;;;11.73;4.40;;;;;;;12.47;100.00;95019.22;4815571;29;20042;-70
2022/04/27 06:22:09;;;;;;;7.68;4.00;;;;;;;12.58;100.00;95016.53;4839449;29;20133;-69
2022/04/27 06:24:37;;;;;;;8.65;4.43;;;;;;;12.77;100.00;95019.69;4846055;29;20136;-69
2022/04/27 06:27:24;;;;;;;6.03;4.25;;;;;;;12.89;100.00;95021.41;4835070;29;20068;-69
2022/04/27 06:29:50;;;;;;;5.32;4.00;;;;;;;13.10;100.00;95028.50;4808097;29;20054;-70
2022/04/27 06:32:17;;;;;;;8.02;3.58;;;;;;;13.19;100.00;95019.19;4841039;29;20050;-70
2022/04/27 06:34:46;;;;;;;6.68;4.57;;;;;;;13.30;100.00;95011.50;4838271;29;20053;-70
2022/04/27 06:37:13;;;;;;;6.63;4.05;;;;;;;13.49;100.00;95020.66;4852254;29;20559;-70
2022/04/27 06:39:43;;;;;;;6.82;3.83;;;;;;;13.56;100.00;95013.41;4835530;29;20085;-70
2022/04/27 06:42:10;;;;;;;4.95;4.22;;;;;;;13.68;100.00;95012.47;4844181;29;20186;-69
2022/04/27 06:44:37;;;;;;;7.85;4.10;;;;;;;13.89;100.00;95011.66;4851861;29;20476;-69
2022/04/27 06:47:27;;;;;;;7.45;4.28;;;;;;;14.06;100.00;95023.84;4825189;29;20060;-69
2022/04/27 06:50:12;;;;;;;7.13;4.22;;;;;;;14.17;100.00;95017.69;4848977;29;20089;-69
2022/04/27 06:53:11;;;;;;;8.75;4.00;;;;;;;14.34;100.00;95010.47;4840391;29;20157;-69
2022/04/27 06:55:38;;;;;;;6.35;3.90;;;;;;;14.54;100.00;95015.09;4855716;29;20042;-70
2022/04/27 06:58:32;;;;;;;7.97;3.83;;;;;;;14.69;99.44;95017.06;4819645;29;20049;-69
2022/04/27 07:01:04;;;;;;;5.90;4.78;;;;;;;14.96;99.35;95018.78;4818684;29;20050;-70
2022/04/27 07:03:35;;;;;;;6.78;4.40;;;;;;;15.10;97.20;95017.31;4849981;29;20050;-69
2022/04/27 07:06:02;;;;;;;5.35;3.47;;;;;;;15.28;97.31;95012.69;4834440;29;20053;-68
2022/04/27 07:08:30;;;;;;;8.85;3.47;;;;;;;15.53;95.86;95021.72;4835731;29;20046;-68
2022/04/27 07:10:56;;;;;;;5.82;3.83;;;;;;;15.53;94.58;95013.84;4845355;29;20058;-69
2022/04/27 07:13:23;;;;;;;6.13;4.32;;;;;;;15.60;92.66;95015.16;4858360;29;20558;-68
2022/04/27 07:15:51;;;;;;;5.13;3.00;;;;;;;15.60;92.66;94993.38;4850185;29;20053;-69
2022/04/27 07:18:18;;;;;;;5.93;2.85;;;;;;;15.95;91.60;95021.59;4836504;29;20077;-68
2022/04/27 07:20:45;;;;;;;6.00;3.00;;;;;;;15.98;90.64;95015.03;4838586;29;20621;-68
2022/04/27 07:23:12;;;;;;;6.72;2.90;;;;;;;16.16;89.63;95022.41;4845256;29;20523;-68
2022/04/27 07:25:39;;;;;;;8.80;3.28;;;;;;;16.36;89.09;95020.84;4835961;29;20049;-67
2022/04/27 07:28:07;;;;;;;4.05;3.03;;;;;;;16.47;86.39;95017.19;4823307;29;20054;-67
2022/04/27 07:30:34;;;;;;;5.93;2.78;;;;;;;16.48;84.47;95002.22;4823115;29;20976;-68
2022/04/27 07:33:01;;;;;;;7.13;2.53;;;;;;;16.67;86.78;95011.13;4847730;29;20045;-70
2022/04/27 07:35:28;;;;;;;4.13;2.88;;;;;;;16.87;87.63;95015.63;4853997;29;20068;-71
2022/04/27 07:37:54;;;;;;;7.68;2.78;;;;;;;17.15;87.93;95000.28;4836174;29;20053;-70
2022/04/27 07:40:21;;;;;;;3.88;2.28;;;;;;;17.45;83.69;94998.59;4851405;29;20061;-68
2022/04/27 07:42:48;;;;;;;7.07;3.40;;;;;;;17.56;81.03;95010.66;4834146;29;20517;-68
2022/04/27 07:45:15;;;;;;;6.72;2.67;;;;;;;17.59;81.70;95010.13;4852039;29;20062;-68
2022/04/27 07:47:45;;;;;;;5.45;2.75;;;;;;;17.50;83.48;95002.00;4844507;29;20057;-68
2022/04/27 07:50:14;;;;;;;6.75;2.22;;;;;;;17.80;82.35;95010.81;4846169;29;20050;-69
2022/04/27 07:52:42;;;;;;;3.28;2.25;;;;;;;18.04;79.90;95002.28;4847644;29;20118;-68
2022/04/27 07:55:10;;;;;;;7.85;2.42;;;;;;;18.30;81.23;95008.16;4848115;29;20046;-69
2022/04/27 07:57:38;;;;;;;3.88;2.78;;;;;;;18.50;78.67;95008.00;4834542;29;20066;-69
2022/04/27 08:00:08;;;;;;;4.75;2.03;;;;;;;18.61;77.59;95000.00;4834179;29;20153;-70
2022/04/27 08:02:39;;;;;;;3.50;2.08;;;;;;;18.79;77.95;95001.16;4841612;29;20129;-71
2022/04/27 08:05:07;;;;;;;7.05;2.33;;;;;;;18.63;76.18;94989.97;4852521;29;20110;-70
2022/04/27 08:07:48;;;;;;;3.28;2.72;;;;;;;18.89;73.76;94999.25;4839567;29;20062;-69
2022/04/27 08:10:20;;;;;;;5.72;2.42;;;;;;;19.09;72.91;95008.03;4845783;29;20053;-70
2022/04/27 08:12:49;;;;;;;5.97;2.65;;;;;;;19.26;71.05;95003.06;4851653;29;20393;-69
2022/04/27 08:15:18;;;;;;;5.22;2.85;;;;;;;19.49;68.03;95001.50;4838155;29;20045;-69
2022/04/27 08:17:59;;;;;;;6.18;2.47;;;;;;;19.63;68.92;95001.59;4846270;29;20046;-68
2022/04/27 08:23:23;;;;;;;3.30;2.92;;;;;;;19.82;69.49;94987.66;4839369;29;20141;-69
2022/04/27 08:25:50;;;;;;;5.35;2.90;;;;;;;19.75;69.81;94998.56;4853701;29;20050;-69
2022/04/27 08:28:19;;;;;;;3.40;3.10;;;;;;;19.89;70.86;94988.06;4854039;29;20057;-69
2022/04/27 08:30:47;;;;;;;10.32;3.30;;;;;;;19.84;70.32;94993.44;4854227;29;20064;-69
2022/04/27 08:33:16;;;;;;;4.30;2.70;;;;;;;20.01;71.45;94991.06;4837990;29;20049;-69
2022/04/27 08:35:44;;;;;;;7.00;3.20;;;;;;;19.49;69.57;94993.56;4854943;29;20706;-69
2022/04/27 08:38:12;;;;;;;5.60;2.97;;;;;;;19.31;70.77;94977.72;4842760;29;20585;-69
2022/04/27 08:40:44;;;;;;;5.47;3.90;;;;;;;19.46;68.58;94990.72;4835965;29;20057;-70
2022/04/27 08:43:12;;;;;;;5.68;2.78;;;;;;;19.61;68.28;94990.53;4853735;29;20080;-69
2022/04/27 08:45:41;;;;;;;5.63;2.45;;;;;;;19.91;67.05;94985.16;4854407;29;20045;-70
2022/04/27 08:48:09;;;;;;;5.05;2.90;;;;;;;20.05;67.90;94986.78;4852168;29;20064;-69
2022/04/27 08:50:37;;;;;;;9.85;2.80;;;;;;;20.33;66.68;94986.91;4854154;29;20836;-69
2022/04/27 08:53:04;;;;;;;4.43;2.25;;;;;;;20.60;66.98;94990.72;4852605;29;20237;-70
2022/04/27 08:55:31;;;;;;;6.50;3.25;;;;;;;20.81;65.78;94977.94;4853435;29;20041;-69
2022/04/27 08:58:16;;;;;;;8.38;2.60;;;;;;;21.17;62.86;94977.28;4837261;29;20520;-70
2022/04/27 09:01:03;;;;;;;5.60;3.80;;;;;;;21.06;60.07;94976.69;4836323;29;20042;-70
2022/04/27 09:03:31;;;;;;;5.50;2.90;;;;;;;21.20;61.07;94977.47;4853712;29;20049;-70
2022/04/27 09:06:12;;;;;;;3.83;2.20;;;;;;;21.24;61.58;94971.59;4848882;29;20142;-70
2022/04/27 09:08:41;;;;;;;5.07;2.13;;;;;;;21.11;60.34;94973.94;4847403;29;20049;-70
2022/04/27 09:11:19;;;;;;;5.75;2.38;;;;;;;21.49;60.77;94973.78;4850147;29;20133;-70
2022/04/27 09:13:50;;;;;;;5.60;2.53;;;;;;;21.90;58.75;94967.59;4853035;29;20049;-70
2022/04/27 09:16:18;;;;;;;12.18;3.15;;;;;;;22.25;57.60;94967.09;4852519;29;20053;-70
2022/04/27 09:21:58;;;;;;;5.75;2.83;;;;;;;22.80;54.41;94966.06;4826755;29;20194;-70
2022/04/27 09:24:26;;;;;;;9.13;2.63;;;;;;;22.89;52.32;94964.22;4798451;29;20810;-71
2022/04/27 09:27:03;;;;;;;5.22;2.50;;;;;;;22.70;52.90;94957.25;4845636;29;20058;-71
2022/04/27 09:29:31;;;;;;;6.28;2.40;;;;;;;22.97;52.86;94960.03;4835526;29;20049;-70
2022/04/27 09:31:58;;;;;;;4.30;2.20;;;;;;;23.04;52.10;94953.22;4851136;29;20055;-70
2022/04/27 09:34:29;;;;;;;2.90;2.00;;;;;;;23.27;52.59;94963.78;4852357;29;20535;-70
2022/04/27 09:37:11;;;;;;;7.78;2.20;;;;;;;23.45;51.62;94952.09;4850996;29;20060;-71
2022/04/27 09:39:38;;;;;;;5.95;2.58;;;;;;;23.75;52.71;94952.31;4840239;29;20057;-70
2022/04/27 09:42:08;;;;;;;5.07;2.17;;;;;;;23.97;52.21;94953.28;4851296;29;20579;-71
2022/04/27 09:44:38;;;;;;;3.13;1.73;;;;;;;24.10;49.07;94949.69;4852836;29;20053;-70
2022/04/27 09:47:06;;;;;;;10.05;2.50;;;;;;;24.27;50.56;94950.75;4821442;29;20045;-70
2022/04/27 09:49:36;;;;;;;3.53;2.38;;;;;;;24.53;44.85;94948.88;4847284;29;20524;-70
2022/04/27 09:52:05;;;;;;;5.78;2.20;;;;;;;24.73;41.95;94941.31;4825913;29;20046;-70
2022/04/27 09:54:38;;;;;;;9.02;2.15;;;;;;;24.76;45.69;94935.34;4835499;29;20555;-71
2022/04/27 09:57:09;;;;;;;4.25;1.73;;;;;;;25.00;43.98;94935.56;4843354;29;20050;-70
2022/04/27 09:59:37;;;;;;;2.08;1.83;;;;;;;25.08;41.51;94941.16;4829655;29;20065;-71
2022/04/27 10:02:08;;;;;;;4.38;1.63;;;;;;;25.15;41.69;94931.56;4842194;29;20046;-70
2022/04/27 10:04:37;;;;;;;6.68;2.45;;;;;;;25.30;41.29;94937.47;4851475;29;20073;-70
2022/04/27 10:07:07;;;;;;;4.40;1.80;;;;;;;25.33;41.45;94926.94;4834410;29;20746;-70
2022/04/27 10:09:34;;;;;;;2.20;1.52;;;;;;;25.37;40.19;94927.88;4851339;29;20814;-70
2022/04/27 10:12:13;;;;;;;4.30;2.05;;;;;;;25.63;40.21;94924.28;4851439;29;20711;-70
2022/04/27 10:14:41;;;;;;;5.80;1.83;;;;;;;25.73;38.79;94933.75;4852285;29;20124;-71
2022/04/27 10:17:13;;;;;;;7.38;2.25;;;;;;;25.27;37.50;94933.59;4852932;29;20079;-70
2022/04/27 10:19:44;;;;;;;7.25;2.17;;;;;;;25.32;39.85;94933.41;4851985;29;20046;-70
2022/04/27 10:22:31;;;;;;;3.17;1.80;;;;;;;25.11;36.96;94935.97;4852968;29;20081;-70
2022/04/27 10:25:05;;;;;;;2.25;1.27;;;;;;;25.02;37.44;94927.25;4859311;29;20056;-72
2022/04/27 10:27:33;;;;;;;6.72;1.42;;;;;;;25.37;38.97;94914.56;4851402;29;20057;-72
2022/04/27 10:30:10;;;;;;;3.10;1.20;;;;;;;25.90;36.94;94919.53;4851217;29;20076;-72
2022/04/27 10:32:49;;;;;;;1.92;1.30;;;;;;;26.25;37.21;94921.91;4851908;29;20118;-71
2022/04/27 10:35:21;;;;;;;3.83;1.08;;;;;;;26.58;35.11;94923.78;4849827;29;20042;-72
2022/04/27 10:37:54;;;;;;;1.87;1.27;;;;;;;27.00;33.69;94923.66;4851936;29;20073;-72
2022/04/27 10:40:23;;;;;;;9.13;1.63;;;;;;;26.81;29.38;94922.31;4829198;29;21070;-72
2022/04/27 10:42:50;;;;;;;1.88;1.08;;;;;;;26.99;32.98;94911.41;4844766;29;20045;-71
2022/04/27 10:45:23;;;;;;;2.75;0.98;;;;;;;27.11;31.72;94908.72;4850946;29;20041;-71
2022/04/27 10:47:50;;;;;;;2.10;0.93;;;;;;;26.05;33.33;94916.28;4852269;29;20056;-72
2022/04/27 10:50:20;;;;;;;3.97;1.15;;;;;;;26.63;33.89;94904.91;4850750;29;20056;-71
2022/04/27 10:52:51;;;;;;;6.03;1.33;;;;;;;26.43;29.97;94909.94;4845408;29;20045;-73
2022/04/27 10:55:37;;;;;;;11.23;1.20;;;;;;;26.60;31.53;94905.56;4835414;29;20709;-73
2022/04/27 10:58:22;;;;;;;3.17;1.20;;;;;;;26.91;31.09;94904.28;4834348;29;20044;-73
2022/04/27 11:00:58;;;;;;;4.85;1.77;;;;;;;27.07;29.69;94905.19;4824758;29;20053;-74
2022/04/27 11:03:26;;;;;;;5.15;1.08;;;;;;;27.29;30.29;94905.88;4819430;29;20050;-74
2022/04/27 11:05:57;;;;;;;4.30;1.50;;;;;;;26.56;29.85;94893.97;4838382;29;20045;-73
2022/04/27 11:08:36;;;;;;;3.10;1.02;;;;;;;26.61;30.05;94893.78;4844537;29;20105;-72
2022/04/27 11:11:06;;;;;;;2.13;1.17;;;;;;;27.08;30.89;94888.00;4814446;29;20142;-73
2022/04/27 11:13:35;;;;;;;2.58;1.15;;;;;;;27.27;29.91;94896.28;4831103;29;20050;-71
2022/04/27 11:16:13;;;;;;;5.60;1.60;;;;;;;27.38;30.92;94883.22;4831861;29;20038;-71
2022/04/27 11:18:49;;;;;;;3.22;1.08;;;;;;;26.71;30.92;94885.34;4834828;29;20058;-71
2022/04/27 11:21:20;;;;;;;5.20;1.00;;;;;;;27.34;30.21;94884.25;4835748;29;20076;-70
2022/04/27 11:23:48;;;;;;;4.18;1.45;;;;;;;27.58;28.23;94881.50;4818791;29;20520;-71
2022/04/27 11:26:15;;;;;;;4.35;1.15;;;;;;;26.97;30.08;94876.22;4812667;29;20600;-71
2022/04/27 11:28:43;;;;;;;1.00;0.70;;;;;;;27.21;28.51;94870.88;4835817;29;20053;-71
2022/04/27 11:31:10;;;;;;;12.07;1.02;;;;;;;27.17;28.37;94875.34;4835365;29;20042;-71
2022/04/27 11:33:40;;;;;;;1.95;0.90;;;;;;;27.76;28.84;94865.19;4836293;29;20161;-72
2022/04/27 11:36:19;;;;;;;3.13;1.58;;;;;;;28.44;27.61;94874.28;4837756;29;20158;-72
2022/04/27 11:38:46;;;;;;;4.60;1.10;;;;;;;28.37;26.17;94869.53;4834201;29;20061;-72
2022/04/27 11:41:21;;;;;;;4.82;1.00;;;;;;;29.18;28.25;94869.22;4852327;29;20054;-72
2022/04/27 11:43:49;;;;;;;3.50;0.82;;;;;;;29.77;25.84;94862.06;4868823;29;20050;-72
2022/04/27 11:46:17;;;;;;;1.88;0.95;;;;;;;30.44;23.26;94858.34;4844636;29;20050;-72
2022/04/27 11:48:48;;;;;;;3.85;1.38;;;;;;;30.76;23.06;94844.66;4833320;29;20515;-72
2022/04/27 11:51:15;;;;;;;1.35;0.70;;;;;;;31.17;23.07;94858.34;4837733;29;20141;-72
2022/04/27 11:53:49;;;;;;;2.70;1.23;;;;;;;31.57;22.40;94859.69;4835590;29;20097;-71
2022/04/27 11:56:19;;;;;;;6.80;1.42;;;;;;;31.88;21.76;94857.75;4837252;29;20038;-72
2022/04/27 11:58:48;;;;;;;6.18;1.38;;;;;;;31.96;21.75;94843.22;4833378;29;20048;-72
2022/04/27 12:01:23;;;;;;;9.73;0.93;;;;;;;30.52;22.51;94841.19;4816561;29;20057;-72
2022/04/27 12:03:51;;;;;;;2.42;0.98;;;;;;;31.65;22.91;94845.19;4836473;29;20049;-72
2022/04/27 12:06:19;;;;;;;1.52;0.80;;;;;;;32.05;20.75;94857.19;4830795;29;20069;-72
2022/04/27 12:08:46;;;;;;;2.97;0.88;;;;;;;32.23;21.75;94856.63;4837347;29;20054;-72
2022/04/27 12:11:24;;;;;;;3.08;0.65;;;;;;;32.43;23.31;94849.91;4820226;29;20056;-72